createdAt,value
2018-09-15T00:00:49.479Z,1015.12
2018-09-15T00:01:49.437Z,1015.09
2018-09-15T00:02:49.425Z,1015.11
2018-09-15T00:03:49.413Z,1015.11
2018-09-15T00:04:49.404Z,1015.05
2018-09-15T00:05:49.393Z,1015.10
2018-09-15T00:06:49.410Z,1015.09
2018-09-15T00:07:49.379Z,1015.08
2018-09-15T00:08:49.360Z,1015.12
2018-09-15T00:09:49.354Z,1015.13
2018-09-15T00:10:49.339Z,1015.15
2018-09-15T00:11:49.333Z,1015.11
2018-09-15T00:12:49.343Z,1015.12
2018-09-15T00:13:49.308Z,1015.13
2018-09-15T00:14:49.296Z,1015.14
2018-09-15T00:15:49.285Z,1015.16
2018-09-15T00:16:49.275Z,1015.14
2018-09-15T00:17:49.339Z,1015.17
2018-09-15T00:18:49.254Z,1015.15
2018-09-15T00:19:49.247Z,1015.13
2018-09-15T00:20:49.232Z,1015.12
2018-09-15T00:21:49.227Z,1015.14
2018-09-15T00:22:49.238Z,1015.17
2018-09-15T00:23:49.201Z,1015.20
2018-09-15T00:24:49.188Z,1015.18
2018-09-15T00:25:49.181Z,1015.16
2018-09-15T00:26:49.167Z,1015.19
2018-09-15T00:27:49.179Z,1015.15
2018-09-15T00:28:49.181Z,1015.21
2018-09-15T00:29:49.136Z,1015.20
2018-09-15T00:30:49.129Z,1015.22
2018-09-15T00:31:49.115Z,1015.19
2018-09-15T00:32:49.103Z,1015.19
2018-09-15T00:33:49.093Z,1015.27
2018-09-15T00:34:49.106Z,1015.25
2018-09-15T00:35:49.071Z,1015.21
2018-09-15T00:36:49.061Z,1015.22
2018-09-15T00:37:49.076Z,1015.21
2018-09-15T00:38:49.076Z,1015.23
2018-09-15T00:39:49.052Z,1015.23
2018-09-15T00:40:49.020Z,1015.22
2018-09-15T00:41:49.063Z,1015.22
2018-09-15T00:42:48.996Z,1015.21
2018-09-15T00:43:48.986Z,1015.17
2018-09-15T00:44:48.997Z,1015.19
2018-09-15T00:45:48.963Z,1015.19
2018-09-15T00:46:48.952Z,1015.21
2018-09-15T00:47:48.943Z,1015.16
2018-09-15T00:48:48.932Z,1015.20
2018-09-15T00:49:48.944Z,1015.19
2018-09-15T00:50:48.913Z,1015.15
2018-09-15T00:51:48.904Z,1015.24
2018-09-15T00:52:48.889Z,1015.19
2018-09-15T00:53:48.877Z,1015.20
2018-09-15T00:54:48.890Z,1015.25
2018-09-15T00:55:48.856Z,1015.27
2018-09-15T00:56:48.844Z,1015.29
2018-09-15T00:57:48.834Z,1015.29
2018-09-15T00:58:48.824Z,1015.26
2018-09-15T00:59:48.841Z,1015.25
2018-09-15T01:00:48.802Z,1015.29
2018-09-15T01:01:48.794Z,1015.27
2018-09-15T01:02:48.795Z,1015.28
2018-09-15T01:03:48.773Z,1015.26
2018-09-15T01:04:48.759Z,1015.29
2018-09-15T01:05:48.787Z,1015.29
2018-09-15T01:06:48.738Z,1015.30
2018-09-15T01:07:48.727Z,1015.34
2018-09-15T01:08:48.721Z,1015.33
2018-09-15T01:09:48.706Z,1015.36
2018-09-15T01:10:48.695Z,1015.29
2018-09-15T01:11:48.708Z,1015.30
2018-09-15T01:12:48.674Z,1015.33
2018-09-15T01:13:48.721Z,1015.30
2018-09-15T01:14:48.656Z,1015.29
2018-09-15T01:15:48.642Z,1015.30
2018-09-15T01:16:48.657Z,1015.28
2018-09-15T01:17:48.620Z,1015.28
2018-09-15T01:18:48.610Z,1015.24
2018-09-15T01:19:48.600Z,1015.25
2018-09-15T01:20:48.589Z,1015.26
2018-09-15T01:21:48.603Z,1015.23
2018-09-15T01:22:48.566Z,1015.26
2018-09-15T01:23:48.557Z,1015.31
2018-09-15T01:24:48.549Z,1015.30
2018-09-15T01:25:48.534Z,1015.28
2018-09-15T01:26:48.549Z,1015.34
2018-09-15T01:27:48.513Z,1015.30
2018-09-15T01:28:48.503Z,1015.29
2018-09-15T01:29:48.492Z,1015.28
2018-09-15T01:30:48.480Z,1015.25
2018-09-15T01:31:48.494Z,1015.25
2018-09-15T01:32:48.460Z,1015.29
2018-09-15T01:33:48.448Z,1015.22
2018-09-15T01:34:48.458Z,1015.28
2018-09-15T01:35:48.426Z,1015.24
2018-09-15T01:36:48.440Z,1015.29
2018-09-15T01:37:48.405Z,1015.26
2018-09-15T01:38:48.396Z,1015.24
2018-09-15T01:39:48.387Z,1015.24
2018-09-15T01:40:48.374Z,1015.30
2018-09-15T01:41:48.386Z,1015.34
2018-09-15T01:42:48.357Z,1015.33
2018-09-15T01:43:48.344Z,1015.33
2018-09-15T01:44:48.335Z,1015.35
2018-09-15T01:45:48.321Z,1015.35
2018-09-15T01:46:48.333Z,1015.42
2018-09-15T01:47:48.321Z,1015.41
2018-09-15T01:48:48.288Z,1015.47
2018-09-15T01:49:48.280Z,1015.46
2018-09-15T01:50:48.266Z,1015.51
2018-09-15T01:51:48.280Z,1015.54
2018-09-15T01:52:48.245Z,1015.57
2018-09-15T01:53:48.235Z,1015.59
2018-09-15T01:54:48.224Z,1015.55
2018-09-15T01:55:48.237Z,1015.58
2018-09-15T01:56:48.226Z,1015.55
2018-09-15T01:57:48.209Z,1015.57
2018-09-15T01:58:48.187Z,1015.62
2018-09-15T01:59:48.175Z,1015.55
2018-09-15T02:00:48.161Z,1015.60
2018-09-15T02:01:48.171Z,1015.64
2018-09-15T02:02:48.139Z,1015.58
2018-09-15T02:03:48.130Z,1015.62
2018-09-15T02:04:48.118Z,1015.63
2018-09-15T02:05:48.106Z,1015.59
2018-09-15T02:06:48.119Z,1015.56
2018-09-15T02:07:48.089Z,1015.56
2018-09-15T02:08:48.075Z,1015.58
2018-09-15T02:09:48.063Z,1015.59
2018-09-15T02:10:48.074Z,1015.62
2018-09-15T02:11:48.068Z,1015.62
2018-09-15T02:12:48.031Z,1015.64
2018-09-15T02:13:48.021Z,1015.68
2018-09-15T02:14:48.009Z,1015.64
2018-09-15T02:15:47.999Z,1015.65
2018-09-15T02:16:48.014Z,1015.63
2018-09-15T02:17:47.979Z,1015.67
2018-09-15T02:18:47.968Z,1015.62
2018-09-15T02:19:47.955Z,1015.61
2018-09-15T02:20:47.974Z,1015.65
2018-09-15T02:21:47.961Z,1015.67
2018-09-15T02:22:47.935Z,1015.64
2018-09-15T02:23:47.912Z,1015.67
2018-09-15T02:24:47.906Z,1015.63
2018-09-15T02:25:47.891Z,1015.69
2018-09-15T02:26:47.911Z,1015.68
2018-09-15T02:27:47.872Z,1015.66
2018-09-15T02:28:47.913Z,1015.59
2018-09-15T02:29:47.850Z,1015.67
2018-09-15T02:30:47.846Z,1015.64
2018-09-15T02:31:47.851Z,1015.64
2018-09-15T02:32:47.816Z,1015.67
2018-09-15T02:33:47.822Z,1015.67
2018-09-15T02:34:47.802Z,1015.65
2018-09-15T02:35:47.785Z,1015.66
2018-09-15T02:36:47.802Z,1015.65
2018-09-15T02:37:47.764Z,1015.71
2018-09-15T02:38:47.751Z,1015.72
2018-09-15T02:39:47.754Z,1015.72
2018-09-15T02:40:47.734Z,1015.73
2018-09-15T02:41:47.744Z,1015.70
2018-09-15T02:42:47.713Z,1015.71
2018-09-15T02:43:47.712Z,1015.72
2018-09-15T02:44:47.700Z,1015.69
2018-09-15T02:45:47.685Z,1015.67
2018-09-15T02:46:47.692Z,1015.63
2018-09-15T02:47:47.655Z,1015.63
2018-09-15T02:48:47.648Z,1015.66
2018-09-15T02:49:47.637Z,1015.76
2018-09-15T02:50:47.626Z,1015.74
2018-09-15T02:51:47.639Z,1015.74
2018-09-15T02:52:47.609Z,1015.76
2018-09-15T02:53:47.594Z,1015.72
2018-09-15T02:54:47.644Z,1015.74
2018-09-15T02:55:47.569Z,1015.73
2018-09-15T02:56:47.605Z,1015.79
2018-09-15T02:57:47.549Z,1015.76
2018-09-15T02:58:47.536Z,1015.72
2018-09-15T02:59:47.543Z,1015.74
2018-09-15T03:00:47.516Z,1015.72
2018-09-15T03:01:47.529Z,1015.75
2018-09-15T03:02:47.493Z,1015.72
2018-09-15T03:03:47.482Z,1015.71
2018-09-15T03:04:47.471Z,1015.72
2018-09-15T03:05:47.461Z,1015.77
2018-09-15T03:06:47.488Z,1015.75
2018-09-15T03:07:47.439Z,1015.77
2018-09-15T03:08:47.428Z,1015.78
2018-09-15T03:09:47.421Z,1015.78
2018-09-15T03:10:47.479Z,1015.80
2018-09-15T03:11:47.421Z,1015.79
2018-09-15T03:12:47.386Z,1015.75
2018-09-15T03:13:47.374Z,1015.77
2018-09-15T03:14:47.363Z,1015.79
2018-09-15T03:15:47.355Z,1015.81
2018-09-15T03:16:47.381Z,1015.83
2018-09-15T03:17:47.330Z,1015.80
2018-09-15T03:18:47.321Z,1015.89
2018-09-15T03:19:47.318Z,1015.89
2018-09-15T03:20:47.300Z,1015.85
2018-09-15T03:21:47.310Z,1015.86
2018-09-15T03:22:47.279Z,1015.87
2018-09-15T03:23:47.271Z,1015.87
2018-09-15T03:24:47.255Z,1015.86
2018-09-15T03:25:47.245Z,1015.85
2018-09-15T03:26:47.264Z,1015.79
2018-09-15T03:27:47.225Z,1015.84
2018-09-15T03:28:47.213Z,1015.80
2018-09-15T03:29:47.221Z,1015.89
2018-09-15T03:30:47.190Z,1015.84
2018-09-15T03:31:47.202Z,1015.85
2018-09-15T03:32:47.173Z,1015.83
2018-09-15T03:33:47.156Z,1015.83
2018-09-15T03:34:47.146Z,1015.85
2018-09-15T03:35:47.135Z,1015.87
2018-09-15T03:36:47.150Z,1015.85
2018-09-15T03:37:47.112Z,1015.87
2018-09-15T03:38:47.102Z,1015.80
2018-09-15T03:39:47.114Z,1015.91
2018-09-15T03:40:47.081Z,1015.89
2018-09-15T03:41:47.243Z,1015.88
2018-09-15T03:42:47.063Z,1015.86
2018-09-15T03:43:47.049Z,1015.83
2018-09-15T03:44:47.040Z,1015.84
2018-09-15T03:45:47.031Z,1015.81
2018-09-15T03:46:47.039Z,1015.82
2018-09-15T03:47:47.006Z,1015.84
2018-09-15T03:48:46.992Z,1015.82
2018-09-15T03:49:46.986Z,1015.80
2018-09-15T03:50:46.977Z,1015.80
2018-09-15T03:51:46.985Z,1015.78
2018-09-15T03:52:46.953Z,1015.76
2018-09-15T03:53:46.938Z,1015.82
2018-09-15T03:54:46.929Z,1015.80
2018-09-15T03:55:46.917Z,1015.81
2018-09-15T03:56:46.929Z,1015.86
2018-09-15T03:57:46.896Z,1015.89
2018-09-15T03:58:46.898Z,1015.89
2018-09-15T03:59:46.885Z,1015.91
2018-09-15T04:00:46.878Z,1015.94
2018-09-15T04:01:46.876Z,1015.94
2018-09-15T04:02:46.864Z,1015.90
2018-09-15T04:03:46.833Z,1015.96
2018-09-15T04:04:46.824Z,1015.93
2018-09-15T04:05:46.810Z,1015.95
2018-09-15T04:06:46.821Z,1015.92
2018-09-15T04:07:46.788Z,1015.97
2018-09-15T04:08:46.777Z,1015.93
2018-09-15T04:09:46.771Z,1015.97
2018-09-15T04:10:46.757Z,1015.99
2018-09-15T04:11:46.770Z,1015.99
2018-09-15T04:12:46.734Z,1016.03
2018-09-15T04:13:46.723Z,1016.04
2018-09-15T04:14:46.716Z,1016.05
2018-09-15T04:15:46.702Z,1016.05
2018-09-15T04:16:46.716Z,1016.03
2018-09-15T04:17:46.681Z,1016.05
2018-09-15T04:18:46.670Z,1016.06
2018-09-15T04:19:46.663Z,1016.02
2018-09-15T04:20:46.648Z,1016.06
2018-09-15T04:21:46.663Z,1016.06
2018-09-15T04:22:46.636Z,1016.05
2018-09-15T04:23:46.617Z,1016.03
2018-09-15T04:24:46.618Z,1016.00
2018-09-15T04:25:46.611Z,1016.05
2018-09-15T04:26:46.612Z,1016.06
2018-09-15T04:27:46.574Z,1016.04
2018-09-15T04:28:46.563Z,1016.04
2018-09-15T04:29:46.552Z,1016.02
2018-09-15T04:30:46.543Z,1016.05
2018-09-15T04:31:46.555Z,1016.12
2018-09-15T04:32:46.522Z,1016.06
2018-09-15T04:33:46.511Z,1016.13
2018-09-15T04:34:46.500Z,1016.08
2018-09-15T04:35:46.489Z,1016.13
2018-09-15T04:36:46.502Z,1016.13
2018-09-15T04:37:46.468Z,1016.15
2018-09-15T04:38:46.478Z,1016.15
2018-09-15T04:39:46.451Z,1016.13
2018-09-15T04:40:46.436Z,1016.13
2018-09-15T04:41:46.530Z,1016.18
2018-09-15T04:42:46.415Z,1016.21
2018-09-15T04:43:46.403Z,1016.19
2018-09-15T04:44:46.392Z,1016.22
2018-09-15T04:45:46.387Z,1016.20
2018-09-15T04:46:46.400Z,1016.25
2018-09-15T04:47:46.362Z,1016.27
2018-09-15T04:48:46.372Z,1016.26
2018-09-15T04:49:46.341Z,1016.25
2018-09-15T04:50:46.334Z,1016.28
2018-09-15T04:51:46.344Z,1016.27
2018-09-15T04:52:46.391Z,1016.31
2018-09-15T04:53:46.300Z,1016.34
2018-09-15T04:54:46.287Z,1016.34
2018-09-15T04:55:46.281Z,1016.30
2018-09-15T04:56:46.288Z,1016.33
2018-09-15T04:57:46.253Z,1016.32
2018-09-15T04:58:46.292Z,1016.38
2018-09-15T04:59:46.234Z,1016.42
2018-09-15T05:00:46.223Z,1016.40
2018-09-15T05:01:46.237Z,1016.38
2018-09-15T05:02:46.200Z,1016.38
2018-09-15T05:03:46.196Z,1016.42
2018-09-15T05:04:46.181Z,1016.47
2018-09-15T05:05:46.167Z,1016.43
2018-09-15T05:06:46.188Z,1016.43
2018-09-15T05:07:46.146Z,1016.41
2018-09-15T05:08:46.136Z,1016.43
2018-09-15T05:09:46.128Z,1016.44
2018-09-15T05:10:46.115Z,1016.49
2018-09-15T05:11:46.151Z,1016.43
2018-09-15T05:12:46.111Z,1016.39
2018-09-15T05:13:46.088Z,1016.47
2018-09-15T05:14:46.072Z,1016.48
2018-09-15T05:15:46.060Z,1016.49
2018-09-15T05:16:46.075Z,1016.48
2018-09-15T05:17:46.039Z,1016.54
2018-09-15T05:18:46.033Z,1016.47
2018-09-15T05:19:46.018Z,1016.51
2018-09-15T05:20:46.015Z,1016.50
2018-09-15T05:21:46.047Z,1016.53
2018-09-15T05:22:45.985Z,1016.55
2018-09-15T05:23:46.024Z,1016.55
2018-09-15T05:24:45.979Z,1016.55
2018-09-15T05:25:45.956Z,1016.54
2018-09-15T05:26:45.967Z,1016.55
2018-09-15T05:27:45.941Z,1016.54
2018-09-15T05:28:45.924Z,1016.54
2018-09-15T05:29:45.913Z,1016.58
2018-09-15T05:30:45.899Z,1016.57
2018-09-15T05:31:45.918Z,1016.55
2018-09-15T05:32:45.882Z,1016.65
2018-09-15T05:33:45.872Z,1016.64
2018-09-15T05:34:45.867Z,1016.66
2018-09-15T05:35:45.848Z,1016.70
2018-09-15T05:36:45.861Z,1016.66
2018-09-15T05:37:45.826Z,1016.67
2018-09-15T05:38:45.821Z,1016.66
2018-09-15T05:39:45.822Z,1016.67
2018-09-15T05:40:45.795Z,1016.70
2018-09-15T05:41:45.808Z,1016.74
2018-09-15T05:42:45.776Z,1016.75
2018-09-15T05:43:45.765Z,1016.77
2018-09-15T05:44:45.771Z,1016.81
2018-09-15T05:45:45.743Z,1016.84
2018-09-15T05:46:45.752Z,1016.86
2018-09-15T05:47:45.721Z,1016.86
2018-09-15T05:48:45.708Z,1016.85
2018-09-15T05:49:45.854Z,1016.80
2018-09-15T05:50:45.686Z,1016.82
2018-09-15T05:51:45.700Z,1016.84
2018-09-15T05:52:45.666Z,1016.85
2018-09-15T05:53:45.675Z,1016.87
2018-09-15T05:54:45.652Z,1016.89
2018-09-15T05:55:45.634Z,1016.85
2018-09-15T05:56:45.648Z,1016.83
2018-09-15T05:57:45.617Z,1016.87
2018-09-15T05:58:45.607Z,1016.83
2018-09-15T05:59:45.598Z,1016.85
2018-09-15T06:00:45.581Z,1016.90
2018-09-15T06:01:45.688Z,1016.90
2018-09-15T06:02:45.578Z,1016.81
2018-09-15T06:03:45.551Z,1016.83
2018-09-15T06:04:45.538Z,1016.79
2018-09-15T06:05:45.528Z,1016.84
2018-09-15T06:06:45.557Z,1016.81
2018-09-15T06:07:45.621Z,1016.86
2018-09-15T06:08:45.496Z,1016.86
2018-09-15T06:09:45.486Z,1016.89
2018-09-15T06:10:45.479Z,1016.93
2018-09-15T06:11:45.490Z,1016.85
2018-09-15T06:12:45.454Z,1016.88
2018-09-15T06:13:45.503Z,1016.96
2018-09-15T06:14:45.432Z,1016.93
2018-09-15T06:15:45.422Z,1016.96
2018-09-15T06:16:45.440Z,1016.98
2018-09-15T06:17:45.416Z,1016.99
2018-09-15T06:18:45.390Z,1017.00
2018-09-15T06:19:45.404Z,1016.97
2018-09-15T06:20:45.407Z,1016.96
2018-09-15T06:21:45.404Z,1016.98
2018-09-15T06:22:45.346Z,1016.96
2018-09-15T06:23:45.337Z,1016.96
2018-09-15T06:24:45.326Z,1017.00
2018-09-15T06:25:45.319Z,1017.01
2018-09-15T06:26:45.338Z,1016.95
2018-09-15T06:27:45.292Z,1016.96
2018-09-15T06:28:45.282Z,1016.98
2018-09-15T06:29:45.270Z,1017.02
2018-09-15T06:30:45.261Z,1017.01
2018-09-15T06:31:45.290Z,1017.00
2018-09-15T06:32:45.243Z,1016.96
2018-09-15T06:33:45.229Z,1016.99
2018-09-15T06:34:45.224Z,1016.96
2018-09-15T06:35:45.206Z,1017.00
2018-09-15T06:36:45.217Z,1017.03
2018-09-15T06:37:45.182Z,1017.04
2018-09-15T06:38:45.172Z,1017.01
2018-09-15T06:39:45.162Z,1017.03
2018-09-15T06:40:45.150Z,1017.04
2018-09-15T06:41:45.178Z,1017.03
2018-09-15T06:42:45.130Z,1017.04
2018-09-15T06:43:45.139Z,1017.04
2018-09-15T06:44:45.106Z,1017.07
2018-09-15T06:45:45.205Z,1017.09
2018-09-15T06:46:45.114Z,1017.09
2018-09-15T06:47:45.081Z,1017.00
2018-09-15T06:48:45.068Z,1017.04
2018-09-15T06:49:45.068Z,1017.09
2018-09-15T06:50:45.044Z,1017.06
2018-09-15T06:51:45.064Z,1017.08
2018-09-15T06:52:45.034Z,1017.09
2018-09-15T06:53:45.040Z,1017.09
2018-09-15T06:54:45.008Z,1017.11
2018-09-15T06:55:44.995Z,1017.10
2018-09-15T06:56:45.009Z,1017.16
2018-09-15T06:57:45.032Z,1017.16
2018-09-15T06:58:44.982Z,1017.15
2018-09-15T06:59:44.945Z,1017.14
2018-09-15T07:00:44.983Z,1017.10
2018-09-15T07:01:44.970Z,1017.07
2018-09-15T07:02:44.912Z,1017.16
2018-09-15T07:03:44.903Z,1017.18
2018-09-15T07:04:44.895Z,1017.22
2018-09-15T07:05:44.881Z,1017.19
2018-09-15T07:06:44.897Z,1017.16
2018-09-15T07:07:44.862Z,1017.16
2018-09-15T07:08:44.848Z,1017.23
2018-09-15T07:09:44.836Z,1017.20
2018-09-15T07:10:44.827Z,1017.20
2018-09-15T07:11:44.846Z,1017.23
2018-09-15T07:12:44.809Z,1017.23
2018-09-15T07:13:44.795Z,1017.29
2018-09-15T07:14:44.796Z,1017.32
2018-09-15T07:15:44.777Z,1017.36
2018-09-15T07:16:44.788Z,1017.40
2018-09-15T07:17:44.754Z,1017.40
2018-09-15T07:18:44.744Z,1017.40
2018-09-15T07:19:44.729Z,1017.38
2018-09-15T07:20:44.720Z,1017.39
2018-09-15T07:21:44.732Z,1017.40
2018-09-15T07:22:44.697Z,1017.41
2018-09-15T07:23:44.693Z,1017.39
2018-09-15T07:24:44.685Z,1017.42
2018-09-15T07:25:44.667Z,1017.43
2018-09-15T07:26:44.681Z,1017.45
2018-09-15T07:27:44.660Z,1017.44
2018-09-15T07:28:44.634Z,1017.47
2018-09-15T07:29:44.628Z,1017.49
2018-09-15T07:30:44.612Z,1017.47
2018-09-15T07:31:44.648Z,1017.45
2018-09-15T07:32:44.598Z,1017.44
2018-09-15T07:33:44.582Z,1017.45
2018-09-15T07:34:44.583Z,1017.40
2018-09-15T07:35:44.557Z,1017.42
2018-09-15T07:36:44.573Z,1017.48
2018-09-15T07:37:44.685Z,1017.42
2018-09-15T07:38:44.527Z,1017.46
2018-09-15T07:39:44.516Z,1017.43
2018-09-15T07:40:44.524Z,1017.44
2018-09-15T07:41:44.574Z,1017.45
2018-09-15T07:42:44.483Z,1017.49
2018-09-15T07:43:44.476Z,1017.52
2018-09-15T07:44:44.501Z,1017.53
2018-09-15T07:45:44.451Z,1017.51
2018-09-15T07:46:44.462Z,1017.54
2018-09-15T07:47:44.432Z,1017.54
2018-09-15T07:48:44.417Z,1017.57
2018-09-15T07:49:44.409Z,1017.57
2018-09-15T07:50:44.401Z,1017.54
2018-09-15T07:51:44.467Z,1017.59
2018-09-15T07:52:44.381Z,1017.56
2018-09-15T07:53:44.366Z,1017.58
2018-09-15T07:54:44.356Z,1017.58
2018-09-15T07:55:44.343Z,1017.58
2018-09-15T07:56:44.357Z,1017.64
2018-09-15T07:57:44.461Z,1017.60
2018-09-15T07:58:44.312Z,1017.61
2018-09-15T07:59:44.303Z,1017.64
2018-09-15T08:00:44.296Z,1017.64
2018-09-15T08:01:44.303Z,1017.68
2018-09-15T08:02:44.272Z,1017.70
2018-09-15T08:03:44.268Z,1017.70
2018-09-15T08:04:44.250Z,1017.64
2018-09-15T08:05:44.240Z,1017.72
2018-09-15T08:06:44.251Z,1017.67
2018-09-15T08:07:44.216Z,1017.62
2018-09-15T08:08:44.204Z,1017.60
2018-09-15T08:09:44.198Z,1017.62
2018-09-15T08:10:44.203Z,1017.66
2018-09-15T08:11:44.198Z,1017.63
2018-09-15T08:12:44.163Z,1017.63
2018-09-15T08:13:44.183Z,1017.67
2018-09-15T08:14:44.142Z,1017.66
2018-09-15T08:15:44.132Z,1017.70
2018-09-15T08:16:44.192Z,1017.68
2018-09-15T08:17:44.110Z,1017.73
2018-09-15T08:18:44.097Z,1017.71
2018-09-15T08:19:44.088Z,1017.70
2018-09-15T08:20:44.136Z,1017.67
2018-09-15T08:21:44.093Z,1017.72
2018-09-15T08:22:44.056Z,1017.70
2018-09-15T08:23:44.046Z,1017.71
2018-09-15T08:24:44.033Z,1017.72
2018-09-15T08:25:44.022Z,1017.71
2018-09-15T08:26:44.037Z,1017.71
2018-09-15T08:27:44.026Z,1017.74
2018-09-15T08:28:43.991Z,1017.83
2018-09-15T08:29:43.982Z,1017.81
2018-09-15T08:30:43.969Z,1017.79
2018-09-15T08:31:43.993Z,1017.79
2018-09-15T08:32:43.949Z,1017.83
2018-09-15T08:33:43.952Z,1017.85
2018-09-15T08:34:43.965Z,1017.85
2018-09-15T08:35:43.919Z,1017.81
2018-09-15T08:36:43.927Z,1017.86
2018-09-15T08:37:43.913Z,1017.80
2018-09-15T08:38:43.883Z,1017.77
2018-09-15T08:39:43.880Z,1017.85
2018-09-15T08:40:43.862Z,1017.80
2018-09-15T08:41:43.877Z,1017.82
2018-09-15T08:42:43.842Z,1017.84
2018-09-15T08:43:43.828Z,1017.83
2018-09-15T08:44:43.827Z,1017.82
2018-09-15T08:45:43.819Z,1017.81
2018-09-15T08:46:43.831Z,1017.87
2018-09-15T08:47:43.807Z,1017.86
2018-09-15T08:48:43.774Z,1017.79
2018-09-15T08:49:43.765Z,1017.87
2018-09-15T08:50:43.753Z,1017.87
2018-09-15T08:51:43.768Z,1017.87
2018-09-15T08:52:43.738Z,1017.89
2018-09-15T08:53:43.759Z,1017.80
2018-09-15T08:54:43.712Z,1017.74
2018-09-15T08:55:43.701Z,1017.74
2018-09-15T08:56:43.739Z,1017.74
2018-09-15T08:57:43.678Z,1017.74
2018-09-15T08:58:43.668Z,1017.78
2018-09-15T08:59:43.658Z,1017.78
2018-09-15T09:00:43.661Z,1017.77
2018-09-15T09:01:43.665Z,1017.76
2018-09-15T09:02:43.630Z,1017.72
2018-09-15T09:03:43.691Z,1017.72
2018-09-15T09:04:43.608Z,1017.70
2018-09-15T09:05:43.592Z,1017.72
2018-09-15T09:06:43.629Z,1017.65
2018-09-15T09:07:43.596Z,1017.69
2018-09-15T09:08:43.560Z,1017.69
2018-09-15T09:09:43.558Z,1017.72
2018-09-15T09:10:43.539Z,1017.68
2018-09-15T09:11:43.551Z,1017.66
2018-09-15T09:12:43.523Z,1017.68
2018-09-15T09:13:43.511Z,1017.72
2018-09-15T09:14:43.496Z,1017.74
2018-09-15T09:15:43.487Z,1017.74
2018-09-15T09:16:43.502Z,1017.73
2018-09-15T09:17:43.492Z,1017.79
2018-09-15T09:18:43.455Z,1017.85
2018-09-15T09:19:43.452Z,1017.82
2018-09-15T09:20:43.435Z,1017.87
2018-09-15T09:21:43.448Z,1017.84
2018-09-15T09:22:43.411Z,1017.84
2018-09-15T09:23:43.402Z,1017.88
2018-09-15T09:24:43.399Z,1017.92
2018-09-15T09:25:43.402Z,1017.89
2018-09-15T09:26:43.452Z,1017.90
2018-09-15T09:27:43.358Z,1017.89
2018-09-15T09:28:43.352Z,1017.93
2018-09-15T09:29:43.364Z,1017.96
2018-09-15T09:30:43.325Z,1017.87
2018-09-15T09:31:43.339Z,1017.94
2018-09-15T09:32:43.307Z,1017.95
2018-09-15T09:33:43.293Z,1017.95
2018-09-15T09:34:43.282Z,1017.96
2018-09-15T09:35:43.272Z,1017.98
2018-09-15T09:36:43.286Z,1017.98
2018-09-15T09:37:43.250Z,1018.00
2018-09-15T09:38:43.241Z,1017.98
2018-09-15T09:39:43.230Z,1017.97
2018-09-15T09:40:43.217Z,1017.98
2018-09-15T09:41:43.274Z,1018.06
2018-09-15T09:42:43.220Z,1018.05
2018-09-15T09:43:43.187Z,1018.06
2018-09-15T09:44:43.177Z,1018.04
2018-09-15T09:45:43.164Z,1017.98
2018-09-15T09:46:43.178Z,1018.00
2018-09-15T09:47:43.145Z,1017.97
2018-09-15T09:48:43.133Z,1018.03
2018-09-15T09:49:43.123Z,1017.95
2018-09-15T09:50:43.111Z,1017.95
2018-09-15T09:51:43.125Z,1017.93
2018-09-15T09:52:43.103Z,1017.81
2018-09-15T09:53:43.081Z,1017.92
2018-09-15T09:54:43.067Z,1017.85
2018-09-15T09:55:43.059Z,1017.82
2018-09-15T09:56:43.077Z,1017.91
2018-09-15T09:57:43.036Z,1017.86
2018-09-15T09:58:43.032Z,1017.86
2018-09-15T09:59:43.017Z,1017.83
2018-09-15T10:00:43.004Z,1017.92
2018-09-15T10:01:43.131Z,1017.91
2018-09-15T10:02:42.990Z,1017.89
2018-09-15T10:03:42.993Z,1017.92
2018-09-15T10:04:42.963Z,1017.92
2018-09-15T10:05:42.977Z,1017.95
2018-09-15T10:06:42.980Z,1017.92
2018-09-15T10:07:42.929Z,1017.90
2018-09-15T10:08:42.925Z,1017.88
2018-09-15T10:09:42.909Z,1017.89
2018-09-15T10:10:42.898Z,1017.91
2018-09-15T10:11:42.909Z,1017.91
2018-09-15T10:12:42.878Z,1017.94
2018-09-15T10:13:42.865Z,1017.96
2018-09-15T10:14:42.867Z,1017.95
2018-09-15T10:15:42.898Z,1017.93
2018-09-15T10:16:42.866Z,1017.97
2018-09-15T10:17:42.827Z,1017.93
2018-09-15T10:18:42.812Z,1017.96
2018-09-15T10:19:42.800Z,1018.00
2018-09-15T10:20:42.796Z,1017.89
2018-09-15T10:21:42.869Z,1017.89
2018-09-15T10:22:42.795Z,1017.91
2018-09-15T10:23:42.766Z,1017.92
2018-09-15T10:24:42.748Z,1017.94
2018-09-15T10:25:42.791Z,1017.88
2018-09-15T10:26:42.761Z,1017.87
2018-09-15T10:27:42.714Z,1017.81
2018-09-15T10:28:42.720Z,1017.80
2018-09-15T10:29:42.694Z,1017.76
2018-09-15T10:30:42.689Z,1017.76
2018-09-15T10:31:42.697Z,1017.80
2018-09-15T10:32:42.661Z,1017.75
2018-09-15T10:33:42.668Z,1017.74
2018-09-15T10:34:42.697Z,1017.77
2018-09-15T10:35:42.640Z,1017.74
2018-09-15T10:36:42.654Z,1017.70
2018-09-15T10:37:42.607Z,1017.69
2018-09-15T10:38:42.619Z,1017.63
2018-09-15T10:39:42.589Z,1017.61
2018-09-15T10:40:42.578Z,1017.60
2018-09-15T10:41:42.593Z,1017.60
2018-09-15T10:42:42.565Z,1017.58
2018-09-15T10:43:42.545Z,1017.64
2018-09-15T10:44:42.533Z,1017.66
2018-09-15T10:45:42.524Z,1017.61
2018-09-15T10:46:42.604Z,1017.64
2018-09-15T10:47:42.517Z,1017.66
2018-09-15T10:48:42.534Z,1017.65
2018-09-15T10:49:42.487Z,1017.70
2018-09-15T10:50:42.490Z,1017.68
2018-09-15T10:51:42.502Z,1017.68
2018-09-15T10:52:42.452Z,1017.68
2018-09-15T10:53:42.442Z,1017.73
2018-09-15T10:54:42.430Z,1017.75
2018-09-15T10:55:42.419Z,1017.74
2018-09-15T10:56:42.571Z,1017.78
2018-09-15T10:57:42.396Z,1017.74
2018-09-15T10:58:42.395Z,1017.80
2018-09-15T10:59:42.423Z,1017.80
2018-09-15T11:00:42.429Z,1017.85
2018-09-15T11:01:42.386Z,1017.78
2018-09-15T11:02:42.345Z,1017.78
2018-09-15T11:03:42.334Z,1017.71
2018-09-15T11:04:42.357Z,1017.66
2018-09-15T11:05:42.337Z,1017.64
2018-09-15T11:06:42.333Z,1017.66
2018-09-15T11:07:42.297Z,1017.65
2018-09-15T11:08:42.294Z,1017.65
2018-09-15T11:09:42.269Z,1017.56
2018-09-15T11:10:42.260Z,1017.58
2018-09-15T11:11:42.306Z,1017.56
2018-09-15T11:12:42.244Z,1017.57
2018-09-15T11:13:42.341Z,1017.56
2018-09-15T11:14:42.223Z,1017.59
2018-09-15T11:15:42.212Z,1017.64
2018-09-15T11:16:42.221Z,1017.63
2018-09-15T11:17:42.196Z,1017.65
2018-09-15T11:18:42.178Z,1017.67
2018-09-15T11:19:42.163Z,1017.66
2018-09-15T11:20:42.155Z,1017.68
2018-09-15T11:21:42.168Z,1017.71
2018-09-15T11:22:42.148Z,1017.71
2018-09-15T11:23:42.143Z,1017.72
2018-09-15T11:24:42.112Z,1017.75
2018-09-15T11:25:42.105Z,1017.84
2018-09-15T11:26:42.126Z,1017.78
2018-09-15T11:27:42.080Z,1017.84
2018-09-15T11:28:42.151Z,1017.84
2018-09-15T11:29:42.062Z,1017.83
2018-09-15T11:30:42.055Z,1017.83
2018-09-15T11:31:42.065Z,1017.77
2018-09-15T11:32:42.032Z,1017.79
2018-09-15T11:33:42.021Z,1017.82
2018-09-15T11:34:42.039Z,1017.79
2018-09-15T11:35:41.996Z,1017.75
2018-09-15T11:36:42.011Z,1017.73
2018-09-15T11:37:41.991Z,1017.71
2018-09-15T11:38:41.988Z,1017.68
2018-09-15T11:39:41.952Z,1017.68
2018-09-15T11:40:41.944Z,1017.73
2018-09-15T11:41:41.961Z,1017.72
2018-09-15T11:42:41.921Z,1017.69
2018-09-15T11:43:41.945Z,1017.70
2018-09-15T11:44:41.920Z,1017.77
2018-09-15T11:45:41.892Z,1017.71
2018-09-15T11:46:41.946Z,1017.73
2018-09-15T11:47:41.885Z,1017.76
2018-09-15T11:48:41.868Z,1017.74
2018-09-15T11:49:41.845Z,1017.74
2018-09-15T11:50:41.841Z,1017.75
2018-09-15T11:51:41.871Z,1017.65
2018-09-15T11:52:41.818Z,1017.69
2018-09-15T11:53:41.843Z,1017.68
2018-09-15T11:54:41.799Z,1017.77
2018-09-15T11:55:41.792Z,1017.74
2018-09-15T11:56:41.800Z,1017.65
2018-09-15T11:57:42.213Z,1017.63
2018-09-15T11:58:41.754Z,1017.66
2018-09-15T11:59:41.740Z,1017.64
2018-09-15T12:00:41.739Z,1017.59
2018-09-15T12:01:41.745Z,1017.60
2018-09-15T12:02:41.709Z,1017.62
2018-09-15T12:03:41.708Z,1017.63
2018-09-15T12:04:41.685Z,1017.68
2018-09-15T12:05:41.676Z,1017.64